Time;durP1;ratioP1;P1;durP2;ratioP2;P2;SDS_P1;SDS_P2;PMS_P1;PMS_P2;Temp;Humidity;BMP_temperature;BMP_pressure;BME280_temperature;BME280_humidity;BME280_pressure;Samples;Min_cycle;Max_cycle;Signal;HPM_P1;HPM_P2
2022/12/02 00:01:53;;;;;;;23.35;9.07;;;11.50;59.00;;;;;;6096547;29;20493;-78
2022/12/02 00:05:00;;;;;;;23.98;8.30;;;11.50;59.00;;;;;;6075798;29;20061;-78
2022/12/02 00:08:22;;;;;;;22.00;8.32;;;11.50;59.00;;;;;;6083570;29;20055;-78
2022/12/02 00:11:29;;;;;;;23.27;8.90;;;11.40;59.00;;;;;;6096475;29;20111;-78
2022/12/02 00:14:34;;;;;;;19.25;8.90;;;11.40;59.10;;;;;;6091354;29;20044;-79
2022/12/02 00:17:35;;;;;;;20.75;8.13;;;11.30;59.10;;;;;;6106082;29;20041;-77
2022/12/02 00:20:36;;;;;;;22.23;8.90;;;11.30;59.20;;;;;;6089520;29;20418;-77
2022/12/02 00:23:37;;;;;;;20.42;8.00;;;11.30;59.20;;;;;;6088689;29;20462;-77
2022/12/02 00:26:38;;;;;;;29.75;8.82;;;11.20;59.20;;;;;;6090312;29;20055;-79
2022/12/02 00:29:39;;;;;;;17.92;9.10;;;11.20;59.10;;;;;;6097044;29;20406;-78
2022/12/02 00:32:39;;;;;;;20.52;9.43;;;11.20;59.10;;;;;;6094655;29;20039;-79
2022/12/02 00:35:40;;;;;;;22.73;8.40;;;11.20;59.10;;;;;;6094538;29;20037;-78
2022/12/02 00:38:43;;;;;;;17.10;7.47;;;11.20;59.10;;;;;;6085951;29;20501;-78
2022/12/02 00:41:44;;;;;;;20.73;8.32;;;11.20;59.10;;;;;;6096344;29;20032;-78
2022/12/02 00:48:05;;;;;;;15.73;7.20;;;11.20;59.00;;;;;;6090302;29;20036;-78
2022/12/02 00:51:06;;;;;;;24.48;8.98;;;11.20;58.90;;;;;;6086356;29;20051;-77
2022/12/02 00:54:07;;;;;;;15.40;7.40;;;11.20;59.00;;;;;;6096541;29;20378;-78
2022/12/02 00:57:08;;;;;;;17.42;7.97;;;11.20;59.00;;;;;;6096342;29;20515;-78
2022/12/02 01:00:10;;;;;;;16.38;8.18;;;11.20;59.00;;;;;;6094083;29;20036;-78
2022/12/02 01:03:12;;;;;;;30.50;8.40;;;11.10;58.90;;;;;;6095268;29;20042;-78
2022/12/02 01:06:13;;;;;;;20.55;8.13;;;11.10;59.00;;;;;;6076999;29;20060;-77
2022/12/02 01:09:14;;;;;;;23.50;8.82;;;11.10;59.00;;;;;;6073243;29;20103;-78
2022/12/02 01:12:15;;;;;;;25.25;10.25;;;11.10;59.00;;;;;;6077950;29;20044;-77
2022/12/02 01:15:16;;;;;;;22.55;8.82;;;11.10;59.20;;;;;;6094009;29;20438;-78
2022/12/02 01:18:17;;;;;;;20.42;8.63;;;11.00;59.20;;;;;;6090288;29;20036;-78
2022/12/02 01:21:20;;;;;;;19.88;9.13;;;11.00;59.30;;;;;;6070113;29;20052;-77
2022/12/02 01:24:21;;;;;;;24.50;8.75;;;11.00;59.40;;;;;;6092864;29;20032;-79
2022/12/02 01:27:23;;;;;;;19.98;9.27;;;11.00;59.30;;;;;;6098598;29;20497;-77
2022/12/02 01:30:24;;;;;;;22.98;8.93;;;11.00;59.40;;;;;;6103115;29;20047;-79
2022/12/02 01:33:25;;;;;;;21.75;9.10;;;10.90;59.40;;;;;;6094568;29;20094;-78
2022/12/02 01:36:25;;;;;;;23.08;8.90;;;10.90;59.30;;;;;;6083884;29;20044;-78
2022/12/02 01:39:28;;;;;;;26.70;8.93;;;10.90;59.30;;;;;;6100622;28;20478;-79
2022/12/02 01:42:29;;;;;;;17.75;8.07;;;10.80;59.40;;;;;;6087824;29;20036;-78
2022/12/02 01:45:30;;;;;;;22.25;9.20;;;10.80;59.50;;;;;;6081875;29;20036;-77
2022/12/02 01:48:35;;;;;;;21.55;9.85;;;10.80;59.50;;;;;;6081039;29;20043;-77
2022/12/02 01:51:37;;;;;;;23.02;10.23;;;10.80;59.70;;;;;;6090230;29;20076;-78
2022/12/02 01:54:38;;;;;;;22.77;9.52;;;10.70;59.70;;;;;;6089831;29;20046;-77
2022/12/02 01:57:39;;;;;;;21.95;9.43;;;10.80;59.90;;;;;;6109745;29;20374;-77
2022/12/02 02:00:40;;;;;;;21.92;9.05;;;10.80;60.00;;;;;;6088378;29;20052;-77
2022/12/02 02:03:42;;;;;;;26.27;9.38;;;10.80;60.00;;;;;;6083261;29;20399;-77
2022/12/02 02:06:45;;;;;;;20.67;8.77;;;10.80;60.00;;;;;;6104495;29;20032;-79
2022/12/02 02:09:47;;;;;;;22.92;9.13;;;10.80;60.10;;;;;;6099564;29;20474;-78
2022/12/02 02:12:49;;;;;;;24.08;10.10;;;10.80;60.20;;;;;;6090246;29;20095;-77
2022/12/02 02:15:50;;;;;;;31.67;9.43;;;10.70;60.20;;;;;;6085372;29;20525;-78
2022/12/02 02:18:51;;;;;;;29.10;10.85;;;10.70;60.30;;;;;;6092532;29;20165;-77
2022/12/02 02:21:55;;;;;;;25.25;10.15;;;10.70;60.40;;;;;;6093773;29;20052;-77
2022/12/02 02:24:56;;;;;;;20.95;8.85;;;10.70;60.50;;;;;;6092095;29;20033;-78
2022/12/02 02:27:59;;;;;;;23.98;10.02;;;10.70;60.50;;;;;;6096077;29;20445;-77
2022/12/02 02:31:01;;;;;;;22.92;9.65;;;10.70;60.50;;;;;;6099169;29;20060;-77
2022/12/02 02:34:09;;;;;;;28.13;9.68;;;10.70;60.60;;;;;;6082432;29;20072;-77
2022/12/02 02:37:10;;;;;;;35.08;11.10;;;10.70;60.60;;;;;;6086223;29;20040;-78
2022/12/02 02:40:15;;;;;;;25.92;10.48;;;10.70;60.70;;;;;;6099421;29;20071;-78
2022/12/02 02:43:20;;;;;;;23.55;11.02;;;10.70;60.80;;;;;;6069620;29;20088;-78
2022/12/02 02:46:22;;;;;;;20.23;9.77;;;10.70;60.90;;;;;;6107713;29;20136;-79
2022/12/02 02:49:23;;;;;;;19.52;9.55;;;10.70;60.90;;;;;;6087084;29;20044;-78
2022/12/02 02:52:24;;;;;;;22.35;9.43;;;10.70;60.90;;;;;;6095730;29;20037;-78
2022/12/02 02:55:26;;;;;;;24.20;10.52;;;10.70;60.90;;;;;;6093833;29;20493;-79
2022/12/02 02:58:27;;;;;;;24.67;8.95;;;10.70;60.90;;;;;;6094576;29;20048;-79
2022/12/02 03:01:32;;;;;;;22.52;8.98;;;10.70;60.90;;;;;;6101066;29;20037;-78
2022/12/02 03:04:35;;;;;;;26.63;9.13;;;10.70;60.80;;;;;;6092672;29;20065;-77
2022/12/02 03:07:36;;;;;;;21.90;9.52;;;10.70;60.90;;;;;;6097115;29;20128;-77
2022/12/02 03:10:37;;;;;;;22.33;8.88;;;10.70;60.90;;;;;;6092105;29;20033;-77
2022/12/02 03:13:42;;;;;;;20.77;8.98;;;10.70;61.00;;;;;;6108481;29;20051;-77
2022/12/02 03:16:44;;;;;;;26.40;10.27;;;10.70;61.00;;;;;;6101901;29;20032;-77
2022/12/02 03:19:46;;;;;;;25.30;10.68;;;10.70;61.00;;;;;;6092389;29;20048;-78
2022/12/02 03:22:47;;;;;;;28.55;10.18;;;10.70;61.00;;;;;;6098572;29;20419;-78
2022/12/02 03:25:48;;;;;;;20.63;9.48;;;10.80;61.00;;;;;;6092905;29;20040;-78
2022/12/02 03:28:50;;;;;;;21.25;8.60;;;10.80;61.00;;;;;;6104581;29;20124;-77
2022/12/02 03:31:51;;;;;;;20.63;8.63;;;10.80;61.00;;;;;;6092852;29;20525;-78
2022/12/02 03:34:52;;;;;;;21.48;8.77;;;10.80;60.90;;;;;;6106811;29;20056;-78
2022/12/02 03:37:52;;;;;;;20.80;7.75;;;10.80;60.90;;;;;;6091067;29;20493;-78
2022/12/02 03:40:54;;;;;;;22.95;9.93;;;10.70;60.90;;;;;;6112858;29;20064;-78
2022/12/02 03:43:57;;;;;;;19.65;9.50;;;10.70;61.00;;;;;;6100409;29;20056;-78
2022/12/02 03:46:58;;;;;;;22.60;8.77;;;10.70;61.00;;;;;;6105513;29;20033;-78
2022/12/02 03:49:59;;;;;;;29.85;8.80;;;10.70;61.00;;;;;;6094298;29;20128;-78
2022/12/02 03:53:00;;;;;;;20.92;8.95;;;10.70;60.90;;;;;;6079705;29;20037;-78
2022/12/02 03:56:06;;;;;;;21.83;8.40;;;10.70;61.00;;;;;;6102329;29;20494;-78
2022/12/02 03:59:07;;;;;;;21.30;8.98;;;10.70;61.00;;;;;;6092379;29;20133;-77
2022/12/02 04:02:08;;;;;;;21.02;7.72;;;10.70;61.00;;;;;;6080091;29;20044;-78
2022/12/02 04:05:09;;;;;;;22.33;9.20;;;10.70;60.90;;;;;;6091787;29;20375;-78
2022/12/02 04:08:10;;;;;;;24.30;9.95;;;10.60;60.90;;;;;;6092928;29;20110;-78
2022/12/02 04:11:11;;;;;;;16.85;7.97;;;10.60;61.00;;;;;;6107425;29;20115;-77
2022/12/02 04:14:13;;;;;;;16.33;7.35;;;10.60;61.10;;;;;;6105053;29;20071;-79
2022/12/02 04:17:14;;;;;;;20.83;8.98;;;10.60;61.10;;;;;;6096981;29;20036;-77
2022/12/02 04:20:15;;;;;;;22.63;9.45;;;10.60;61.20;;;;;;6096889;29;20054;-78
2022/12/02 04:23:16;;;;;;;24.98;8.45;;;10.60;61.10;;;;;;6097033;29;20481;-78
2022/12/02 04:26:17;;;;;;;23.08;8.23;;;10.70;61.10;;;;;;6096138;29;20154;-78
2022/12/02 04:29:17;;;;;;;17.13;7.72;;;10.70;61.10;;;;;;6085925;29;20051;-78
2022/12/02 04:32:18;;;;;;;19.77;8.43;;;10.70;61.00;;;;;;6098675;29;20603;-78
2022/12/02 04:35:19;;;;;;;17.35;8.25;;;10.60;60.80;;;;;;6094034;29;20069;-78
2022/12/02 04:38:20;;;;;;;20.17;7.65;;;10.60;61.00;;;;;;6084947;29;20040;-78
2022/12/02 04:41:21;;;;;;;21.85;7.15;;;10.60;61.00;;;;;;6095962;29;20373;-78
2022/12/02 04:44:22;;;;;;;18.10;8.07;;;10.60;61.00;;;;;;6087007;29;20490;-78
2022/12/02 04:47:22;;;;;;;15.35;7.57;;;10.60;60.90;;;;;;6071858;29;20362;-78
2022/12/02 04:50:23;;;;;;;16.02;7.00;;;10.60;60.70;;;;;;6097781;29;20123;-78
2022/12/02 04:53:24;;;;;;;20.77;7.70;;;10.60;60.80;;;;;;6089761;29;20045;-77
2022/12/02 04:56:25;;;;;;;28.02;7.93;;;10.60;60.90;;;;;;6088505;29;20052;-79
2022/12/02 04:59:26;;;;;;;21.92;8.30;;;10.50;60.90;;;;;;6096935;29;20036;-79
2022/12/02 05:02:27;;;;;;;15.85;6.88;;;10.60;61.00;;;;;;6101714;29;20028;-77
2022/12/02 05:05:28;;;;;;;19.08;8.45;;;10.60;61.00;;;;;;6089917;29;20688;-78
2022/12/02 05:08:28;;;;;;;16.17;6.95;;;10.60;61.00;;;;;;6090839;29;20064;-77
2022/12/02 05:11:29;;;;;;;22.13;8.98;;;10.60;60.80;;;;;;6090077;29;20092;-77
2022/12/02 05:14:30;;;;;;;20.23;8.82;;;10.50;60.80;;;;;;6088036;29;20127;-77
2022/12/02 05:17:31;;;;;;;17.50;7.80;;;10.50;60.90;;;;;;6079525;29;20044;-80
2022/12/02 05:20:32;;;;;;;16.42;7.60;;;10.40;60.80;;;;;;6087746;29;20036;-77
2022/12/02 05:23:33;;;;;;;19.10;7.90;;;10.40;60.90;;;;;;6106387;29;20075;-78
2022/12/02 05:26:34;;;;;;;19.58;7.22;;;10.40;60.90;;;;;;6093000;29;20051;-78
2022/12/02 05:29:35;;;;;;;47.70;7.70;;;10.30;61.00;;;;;;6104760;29;20036;-78
2022/12/02 05:32:36;;;;;;;15.98;7.55;;;10.30;61.10;;;;;;6076954;29;20374;-78
2022/12/02 05:35:37;;;;;;;19.13;7.82;;;10.30;61.20;;;;;;6088824;29;20370;-78
2022/12/02 05:38:38;;;;;;;14.05;7.55;;;10.30;61.20;;;;;;6101409;29;20413;-78
2022/12/02 05:41:39;;;;;;;20.15;7.90;;;10.30;61.30;;;;;;6113319;29;20108;-78
2022/12/02 05:44:42;;;;;;;22.90;8.77;;;10.30;61.30;;;;;;6101987;29;20040;-77
2022/12/02 05:47:51;;;;;;;22.73;7.85;;;10.30;61.30;;;;;;6099858;29;20040;-78
2022/12/02 05:50:53;;;;;;;13.70;7.22;;;10.30;61.40;;;;;;6107344;29;20036;-79
2022/12/02 05:53:54;;;;;;;15.38;7.38;;;10.20;61.60;;;;;;6112492;29;20107;-79
2022/12/02 05:56:56;;;;;;;15.80;6.95;;;10.20;61.60;;;;;;6093626;29;20049;-78
2022/12/02 06:00:12;;;;;;;19.33;7.75;;;10.20;61.80;;;;;;6096044;29;20040;-78
2022/12/02 06:03:19;;;;;;;22.08;7.85;;;10.10;62.00;;;;;;6089189;29;20135;-78
2022/12/02 06:06:26;;;;;;;16.10;6.63;;;10.10;62.20;;;;;;6113065;29;20040;-77
2022/12/02 06:09:31;;;;;;;15.18;7.30;;;10.10;62.10;;;;;;6107589;29;20032;-78
2022/12/02 06:12:34;;;;;;;23.05;9.68;;;10.10;62.20;;;;;;6104134;29;20098;-78
2022/12/02 06:15:37;;;;;;;18.45;8.00;;;10.10;62.20;;;;;;6092649;29;20036;-79
2022/12/02 06:18:38;;;;;;;22.08;7.30;;;10.00;62.20;;;;;;6100878;29;20037;-78
2022/12/02 06:21:40;;;;;;;15.25;6.93;;;10.00;62.10;;;;;;6094765;29;20447;-78
2022/12/02 06:24:41;;;;;;;17.27;7.78;;;10.00;62.00;;;;;;6085678;29;20036;-78
2022/12/02 06:27:42;;;;;;;15.93;6.93;;;10.00;61.90;;;;;;6095649;29;20080;-78
2022/12/02 06:30:42;;;;;;;24.90;8.00;;;10.00;61.70;;;;;;6113211;29;20032;-78
2022/12/02 06:33:46;;;;;;;18.13;6.90;;;10.10;61.50;;;;;;6106874;29;20040;-78
2022/12/02 06:36:47;;;;;;;19.17;8.13;;;10.00;61.20;;;;;;6098059;29;20070;-78
2022/12/02 06:39:55;;;;;;;17.20;6.38;;;10.00;61.00;;;;;;6098617;29;20044;-77
2022/12/02 06:42:58;;;;;;;15.27;7.13;;;10.00;60.80;;;;;;6114634;29;20040;-79
2022/12/02 06:45:59;;;;;;;16.73;7.13;;;10.00;60.80;;;;;;6102904;29;20032;-79
2022/12/02 06:49:12;;;;;;;20.17;8.05;;;10.00;60.80;;;;;;6094737;29;20033;-79
2022/12/02 06:52:21;;;;;;;19.55;7.68;;;9.90;60.80;;;;;;6105638;29;20060;-79
2022/12/02 06:55:35;;;;;;;17.33;6.80;;;9.90;60.70;;;;;;6085443;29;20458;-79
2022/12/02 06:59:06;;;;;;;15.35;7.63;;;10.00;60.60;;;;;;6102218;29;20151;-79
2022/12/02 07:02:27;;;;;;;16.35;6.95;;;9.90;60.30;;;;;;6097732;29;20032;-79
2022/12/02 07:05:28;;;;;;;22.20;6.57;;;9.90;60.30;;;;;;6093246;29;20136;-77
2022/12/02 07:08:29;;;;;;;15.95;6.32;;;9.90;60.20;;;;;;6100832;29;20044;-77
2022/12/02 07:11:49;;;;;;;20.02;7.00;;;9.90;60.10;;;;;;6091740;29;20446;-78
2022/12/02 07:15:18;;;;;;;15.30;6.65;;;9.80;59.90;;;;;;6100938;29;20037;-79
2022/12/02 07:18:21;;;;;;;14.23;6.60;;;9.80;59.80;;;;;;6089530;29;20123;-78
2022/12/02 07:21:21;;;;;;;13.35;6.28;;;9.80;59.70;;;;;;6100153;29;20553;-78
2022/12/02 07:24:24;;;;;;;14.18;6.15;;;9.80;59.60;;;;;;6100598;29;20036;-79
2022/12/02 07:27:29;;;;;;;14.30;6.07;;;9.90;60.00;;;;;;6099372;29;20143;-79
2022/12/02 07:30:40;;;;;;;16.80;6.40;;;9.80;59.30;;;;;;6097842;29;20052;-79
2022/12/02 07:33:41;;;;;;;13.68;6.43;;;9.80;59.00;;;;;;6094529;29;20048;-79
2022/12/02 07:36:42;;;;;;;17.35;6.38;;;9.80;58.90;;;;;;6088149;29;20386;-79
2022/12/02 07:39:43;;;;;;;33.03;6.75;;;9.80;58.80;;;;;;6082618;29;20090;-78
2022/12/02 07:42:44;;;;;;;19.30;7.00;;;9.90;58.80;;;;;;6098077;29;20037;-78
2022/12/02 07:45:45;;;;;;;15.50;6.72;;;9.90;58.80;;;;;;6099388;29;20470;-78
2022/12/02 07:48:46;;;;;;;26.08;7.55;;;10.00;58.90;;;;;;6089879;29;20116;-79
2022/12/02 07:51:47;;;;;;;13.93;6.57;;;10.10;58.70;;;;;;6090435;29;20052;-79
2022/12/02 07:54:48;;;;;;;16.77;7.22;;;10.10;58.50;;;;;;6085254;29;20040;-79
2022/12/02 07:57:48;;;;;;;23.80;7.10;;;10.20;58.40;;;;;;6084936;29;20485;-78
2022/12/02 08:00:49;;;;;;;15.20;6.25;;;10.20;58.20;;;;;;6105752;29;20041;-79
2022/12/02 08:03:50;;;;;;;19.75;8.23;;;10.20;58.10;;;;;;6092867;29;20037;-78
2022/12/02 08:06:51;;;;;;;16.45;6.90;;;10.10;57.80;;;;;;6092171;29;20374;-78
2022/12/02 08:09:52;;;;;;;10.95;5.28;;;10.20;57.80;;;;;;6088876;29;20047;-78
2022/12/02 08:12:53;;;;;;;16.25;7.47;;;10.20;57.50;;;;;;6093643;29;20050;-79
2022/12/02 08:15:54;;;;;;;11.70;6.03;;;10.20;57.50;;;;;;6099414;29;20040;-78
2022/12/02 08:18:55;;;;;;;14.43;6.47;;;10.10;57.50;;;;;;6090669;29;20055;-79
2022/12/02 08:21:56;;;;;;;21.48;6.53;;;10.20;57.40;;;;;;6096209;29;20051;-79
2022/12/02 08:24:57;;;;;;;18.10;5.22;;;10.20;57.30;;;;;;6100256;29;20044;-79
2022/12/02 08:27:58;;;;;;;13.27;5.40;;;10.20;57.10;;;;;;6097960;29;20374;-77
2022/12/02 08:30:59;;;;;;;16.45;5.97;;;10.20;56.80;;;;;;6106635;29;20052;-78
2022/12/02 08:34:00;;;;;;;19.05;6.20;;;10.20;56.80;;;;;;6114765;29;20072;-78
2022/12/02 08:37:01;;;;;;;15.85;6.10;;;10.20;56.80;;;;;;6091234;29;20058;-80
2022/12/02 08:40:02;;;;;;;19.67;6.35;;;10.20;56.80;;;;;;6087967;29;20055;-78
2022/12/02 08:43:03;;;;;;;15.38;5.78;;;10.30;56.70;;;;;;6094598;29;20044;-78
2022/12/02 08:46:05;;;;;;;16.55;5.97;;;10.30;56.40;;;;;;6081880;29;20032;-78
2022/12/02 08:49:06;;;;;;;9.60;4.80;;;10.40;56.30;;;;;;6093849;29;20036;-79
2022/12/02 08:52:08;;;;;;;16.02;6.80;;;10.40;56.20;;;;;;6090913;29;20352;-78
2022/12/02 08:55:09;;;;;;;11.52;5.57;;;10.40;55.90;;;;;;6100213;29;20048;-78
2022/12/02 08:58:10;;;;;;;17.45;5.95;;;10.40;55.80;;;;;;6089834;29;20474;-78
2022/12/02 09:01:11;;;;;;;16.17;6.57;;;10.40;55.80;;;;;;6092522;29;20370;-79
2022/12/02 09:04:12;;;;;;;11.02;4.55;;;10.40;55.80;;;;;;6096180;29;20040;-77
2022/12/02 09:07:13;;;;;;;17.70;5.88;;;10.40;55.90;;;;;;6093403;29;20052;-78
2022/12/02 09:10:14;;;;;;;19.30;5.88;;;10.50;56.10;;;;;;6091497;29;20477;-77
2022/12/02 09:13:15;;;;;;;16.25;5.97;;;10.50;56.00;;;;;;6093493;29;20059;-79
2022/12/02 09:16:16;;;;;;;15.93;6.35;;;10.50;55.90;;;;;;6081935;29;20045;-79
2022/12/02 09:19:17;;;;;;;12.55;5.30;;;10.60;55.80;;;;;;6085465;29;20037;-79
2022/12/02 09:22:18;;;;;;;13.77;6.13;;;10.70;55.70;;;;;;6110953;29;20119;-79
2022/12/02 09:25:18;;;;;;;10.77;5.15;;;10.80;55.50;;;;;;6090122;29;20041;-78
2022/12/02 09:28:21;;;;;;;9.35;4.90;;;10.80;55.20;;;;;;6092763;29;20164;-78
2022/12/02 09:31:21;;;;;;;20.45;6.72;;;10.80;55.10;;;;;;6098854;29;20040;-78
2022/12/02 09:34:22;;;;;;;17.88;7.78;;;10.90;55.20;;;;;;6094808;29;20390;-79
2022/12/02 09:37:23;;;;;;;19.50;6.97;;;11.10;55.30;;;;;;6094046;29;20514;-80
2022/12/02 09:40:24;;;;;;;14.25;6.82;;;11.20;54.90;;;;;;6107854;29;20040;-78
2022/12/02 09:43:28;;;;;;;11.27;5.95;;;11.30;54.70;;;;;;6087556;29;20250;-78
2022/12/02 09:46:30;;;;;;;17.15;6.70;;;11.50;54.20;;;;;;6112718;29;20040;-79
2022/12/02 09:49:31;;;;;;;14.40;6.70;;;11.50;53.90;;;;;;6083601;29;20477;-79
2022/12/02 09:52:32;;;;;;;13.00;6.65;;;11.50;53.70;;;;;;6103279;29;20036;-78
2022/12/02 09:55:35;;;;;;;28.48;7.63;;;11.60;53.90;;;;;;6097321;29;20526;-79
2022/12/02 09:58:37;;;;;;;16.55;6.53;;;11.80;53.70;;;;;;6090700;29;20355;-80
2022/12/02 10:01:40;;;;;;;15.85;6.55;;;12.00;53.10;;;;;;6102493;29;20343;-79
2022/12/02 10:04:41;;;;;;;18.83;7.55;;;12.10;53.00;;;;;;6083652;29;20358;-78
2022/12/02 10:07:44;;;;;;;26.45;8.50;;;12.20;52.70;;;;;;6091680;29;20036;-78
2022/12/02 10:10:45;;;;;;;19.65;7.55;;;12.40;52.60;;;;;;6079160;29;20040;-78
2022/12/02 10:13:46;;;;;;;17.40;6.57;;;12.60;52.30;;;;;;6093644;29;20076;-78
2022/12/02 10:16:47;;;;;;;15.10;6.93;;;12.70;52.50;;;;;;6084514;29;20046;-78
2022/12/02 10:19:49;;;;;;;16.40;6.93;;;12.80;51.60;;;;;;6089419;29;20044;-80
2022/12/02 10:23:18;;;;;;;16.13;6.80;;;12.80;51.30;;;;;;6083351;29;20032;-78
2022/12/02 10:26:19;;;;;;;21.95;6.93;;;12.90;51.20;;;;;;6080199;29;20043;-78
2022/12/02 10:29:29;;;;;;;15.43;6.97;;;12.90;50.80;;;;;;6096137;29;20150;-80
2022/12/02 10:32:30;;;;;;;19.48;7.32;;;12.90;50.70;;;;;;6095254;29;20414;-79
2022/12/02 10:35:48;;;;;;;15.50;6.15;;;12.90;50.60;;;;;;6089117;29;20040;-79
2022/12/02 10:38:50;;;;;;;16.35;6.68;;;12.90;50.90;;;;;;6091778;29;20100;-78
2022/12/02 10:42:03;;;;;;;16.33;7.05;;;12.90;50.10;;;;;;6093863;29;20044;-79
2022/12/02 10:45:23;;;;;;;22.15;6.35;;;12.90;50.10;;;;;;6094430;29;20413;-78
2022/12/02 10:48:24;;;;;;;16.90;6.20;;;12.90;49.90;;;;;;6069827;29;20039;-80
2022/12/02 10:51:25;;;;;;;11.63;5.32;;;13.10;50.00;;;;;;6089481;29;20127;-78
2022/12/02 10:54:28;;;;;;;24.58;8.30;;;13.30;49.60;;;;;;6098735;29;20057;-79
2022/12/02 10:57:31;;;;;;;17.52;6.10;;;13.40;49.30;;;;;;6092133;29;20475;-78
2022/12/02 11:00:32;;;;;;;10.73;5.22;;;13.40;49.10;;;;;;6082465;29;20372;-78
2022/12/02 11:03:33;;;;;;;14.30;6.13;;;13.50;48.50;;;;;;6109695;29;20037;-78
2022/12/02 11:06:34;;;;;;;14.25;5.18;;;13.60;48.30;;;;;;6093651;29;20474;-78
2022/12/02 11:09:39;;;;;;;14.38;5.40;;;13.60;48.10;;;;;;6072731;29;20065;-78
2022/12/02 11:12:51;;;;;;;12.40;5.32;;;13.60;47.70;;;;;;6079451;29;20144;-79
2022/12/02 11:15:53;;;;;;;10.38;4.40;;;13.60;47.80;;;;;;6098964;29;20036;-80
2022/12/02 11:19:12;;;;;;;11.75;4.63;;;13.70;47.90;;;;;;6086258;29;20058;-79
2022/12/02 11:22:47;;;;;;;10.98;5.32;;;13.80;47.80;;;;;;6086328;29;20438;-78
2022/12/02 11:25:50;;;;;;;10.10;4.60;;;13.80;47.50;;;;;;6086583;29;20383;-78
2022/12/02 11:29:23;;;;;;;9.10;4.85;;;13.80;47.20;;;;;;6093784;29;20037;-78
2022/12/02 11:32:27;;;;;;;11.27;5.47;;;13.80;47.20;;;;;;6087919;29;20088;-79
2022/12/02 11:36:02;;;;;;;10.52;4.50;;;13.80;47.40;;;;;;6089865;29;20119;-78
2022/12/02 11:39:06;;;;;;;12.68;5.55;;;13.80;47.20;;;;;;6088485;29;20039;-79
2022/12/02 11:42:06;;;;;;;16.60;4.97;;;13.80;46.70;;;;;;6093138;29;20040;-80
2022/12/02 11:45:16;;;;;;;12.02;5.32;;;13.80;46.60;;;;;;6086040;29;20168;-80
2022/12/02 11:48:17;;;;;;;15.93;6.38;;;13.70;46.80;;;;;;6093545;29;20032;-79
2022/12/02 11:51:38;;;;;;;20.63;7.93;;;13.80;46.90;;;;;;6083892;29;20103;-80
2022/12/02 11:54:45;;;;;;;19.08;7.68;;;13.80;46.80;;;;;;6077696;29;20079;-78
2022/12/02 11:57:52;;;;;;;14.43;6.45;;;13.70;46.70;;;;;;6104334;28;20047;-79
2022/12/02 12:01:02;;;;;;;11.90;5.47;;;13.70;46.80;;;;;;6089795;29;20072;-79
2022/12/02 12:04:03;;;;;;;15.55;6.90;;;13.60;47.00;;;;;;6072423;29;20496;-79
2022/12/02 12:07:04;;;;;;;14.73;7.57;;;13.60;47.10;;;;;;6069512;29;20040;-78
2022/12/02 12:10:21;;;;;;;12.75;5.90;;;13.70;47.90;;;;;;6090140;29;20040;-79
2022/12/02 12:13:23;;;;;;;15.02;7.32;;;13.70;47.20;;;;;;6083657;29;20036;-79
2022/12/02 12:16:24;;;;;;;14.65;6.50;;;13.80;47.10;;;;;;6092504;29;20048;-80
2022/12/02 12:19:26;;;;;;;12.43;5.63;;;13.80;46.90;;;;;;6087258;29;20310;-78
2022/12/02 12:22:29;;;;;;;16.17;5.78;;;13.80;46.70;;;;;;6086721;29;20532;-77
2022/12/02 12:25:43;;;;;;;12.70;5.95;;;13.90;46.70;;;;;;6070173;29;20119;-80
2022/12/02 12:28:44;;;;;;;19.15;6.72;;;13.80;46.70;;;;;;6085810;29;20043;-78
2022/12/02 12:31:45;;;;;;;20.67;6.13;;;13.90;47.20;;;;;;6098927;29;20052;-79
2022/12/02 12:34:46;;;;;;;19.55;6.63;;;13.90;46.80;;;;;;6098229;29;20381;-79
2022/12/02 12:37:47;;;;;;;10.40;5.60;;;13.90;46.80;;;;;;6091766;29;20040;-79
2022/12/02 12:40:48;;;;;;;11.98;5.70;;;13.90;47.40;;;;;;6094341;29;20035;-78
2022/12/02 12:43:49;;;;;;;11.50;5.43;;;13.80;46.80;;;;;;6089067;29;20067;-78
2022/12/02 12:46:50;;;;;;;12.63;5.68;;;13.90;47.40;;;;;;6092644;29;20339;-79
2022/12/02 12:49:51;;;;;;;14.27;5.95;;;13.90;46.70;;;;;;6084875;29;20036;-78
2022/12/02 12:52:52;;;;;;;11.57;5.97;;;13.90;46.80;;;;;;6086641;29;20044;-80
2022/12/02 12:55:53;;;;;;;13.48;5.72;;;13.90;46.80;;;;;;6093398;29;20087;-79
2022/12/02 12:58:54;;;;;;;11.63;5.38;;;14.00;46.70;;;;;;6089419;29;20028;-78
2022/12/02 13:01:55;;;;;;;12.68;6.18;;;14.00;46.70;;;;;;6091638;29;20163;-78
2022/12/02 13:04:56;;;;;;;11.85;5.47;;;14.00;46.60;;;;;;6091053;29;20433;-78
2022/12/02 13:07:57;;;;;;;18.13;6.20;;;14.00;46.70;;;;;;6098087;29;20249;-79
2022/12/02 13:10:58;;;;;;;14.55;6.00;;;13.90;46.70;;;;;;6093827;28;20127;-78
2022/12/02 13:13:59;;;;;;;11.65;5.70;;;13.90;46.70;;;;;;6100369;29;20047;-79
2022/12/02 13:17:00;;;;;;;17.25;6.88;;;13.80;46.90;;;;;;6095293;29;20040;-78
2022/12/02 13:20:01;;;;;;;15.90;6.28;;;13.70;47.00;;;;;;6094321;29;20499;-78
2022/12/02 13:23:02;;;;;;;12.55;6.25;;;13.60;47.20;;;;;;6104974;29;20067;-78
2022/12/02 13:26:03;;;;;;;11.75;5.97;;;13.50;47.40;;;;;;6086951;29;20071;-78
2022/12/02 13:29:04;;;;;;;10.63;5.78;;;13.40;47.50;;;;;;6094202;29;20036;-78
2022/12/02 13:32:05;;;;;;;13.48;6.22;;;13.40;47.70;;;;;;6083047;29;20103;-78
2022/12/02 13:35:06;;;;;;;22.40;6.93;;;13.30;47.90;;;;;;6091822;29;20742;-79
2022/12/02 13:38:07;;;;;;;11.50;5.68;;;13.20;48.10;;;;;;6078016;29;20047;-79
2022/12/02 13:41:08;;;;;;;17.83;7.07;;;13.10;48.40;;;;;;6104357;29;20056;-78
2022/12/02 13:44:09;;;;;;;17.25;6.65;;;13.00;48.60;;;;;;6099199;29;20345;-79
2022/12/02 13:47:10;;;;;;;21.25;7.53;;;13.00;48.90;;;;;;6095894;29;20047;-80
2022/12/02 13:50:11;;;;;;;18.60;6.78;;;12.90;49.00;;;;;;6082819;29;20419;-78
2022/12/02 13:53:12;;;;;;;16.25;6.75;;;12.90;49.20;;;;;;6077523;29;20053;-79
2022/12/02 13:56:13;;;;;;;15.75;6.53;;;12.80;49.30;;;;;;6094735;29;20063;-79
2022/12/02 13:59:14;;;;;;;14.20;6.65;;;12.70;49.50;;;;;;6087120;29;20076;-79
2022/12/02 14:02:15;;;;;;;19.10;6.95;;;12.60;49.70;;;;;;6090001;29;20044;-78
2022/12/02 14:05:16;;;;;;;17.63;6.43;;;12.50;49.80;;;;;;6099838;28;20385;-79
2022/12/02 14:08:17;;;;;;;17.65;7.50;;;12.50;50.00;;;;;;6090479;29;20487;-80
2022/12/02 14:11:18;;;;;;;19.52;7.57;;;12.40;50.20;;;;;;6097466;29;20072;-78
2022/12/02 14:14:19;;;;;;;17.92;7.20;;;12.40;50.40;;;;;;6102241;29;20440;-77
2022/12/02 14:17:20;;;;;;;14.98;6.40;;;12.40;50.50;;;;;;6096718;29;20044;-78
2022/12/02 14:20:20;;;;;;;15.32;7.15;;;12.30;50.60;;;;;;6113117;29;20477;-78
2022/12/02 14:23:22;;;;;;;16.30;6.68;;;12.40;50.60;;;;;;6077627;29;20110;-79
2022/12/02 14:26:23;;;;;;;16.45;7.22;;;12.50;50.60;;;;;;6092804;29;20047;-78
2022/12/02 14:29:24;;;;;;;18.88;7.05;;;12.50;50.70;;;;;;6095993;29;20373;-78
2022/12/02 14:32:25;;;;;;;14.13;6.97;;;12.50;50.60;;;;;;6101707;29;20123;-78
2022/12/02 14:35:27;;;;;;;18.98;6.95;;;12.50;50.60;;;;;;6092109;29;20041;-78
2022/12/02 14:38:28;;;;;;;16.42;6.88;;;12.60;50.60;;;;;;6094355;29;20071;-79
2022/12/02 14:41:29;;;;;;;16.23;6.97;;;12.60;50.60;;;;;;6100758;29;20025;-79
2022/12/02 14:44:30;;;;;;;22.25;6.90;;;12.50;50.70;;;;;;6083464;29;20036;-78
2022/12/02 14:47:31;;;;;;;40.85;14.23;;;12.50;50.80;;;;;;6088624;29;20063;-79
2022/12/02 14:50:32;;;;;;;17.90;7.47;;;12.50;50.80;;;;;;6109784;29;20052;-80
2022/12/02 14:53:33;;;;;;;19.38;8.23;;;12.50;50.90;;;;;;6089746;29;20058;-78
2022/12/02 14:56:33;;;;;;;19.60;7.32;;;12.50;51.00;;;;;;6106790;29;20072;-78
2022/12/02 14:59:36;;;;;;;20.83;8.55;;;12.50;51.00;;;;;;6090503;29;20041;-79
2022/12/02 15:02:37;;;;;;;15.20;6.38;;;12.50;51.10;;;;;;6085841;29;20338;-79
2022/12/02 15:05:38;;;;;;;16.02;6.80;;;12.50;51.10;;;;;;6102233;29;20087;-78
2022/12/02 15:08:38;;;;;;;15.65;6.90;;;12.40;51.10;;;;;;6087853;29;20063;-78
2022/12/02 15:11:39;;;;;;;15.13;6.75;;;12.40;51.20;;;;;;6090906;29;20050;-78
2022/12/02 15:14:41;;;;;;;16.45;6.97;;;12.40;51.20;;;;;;6096064;29;20075;-79
2022/12/02 15:17:42;;;;;;;17.08;6.82;;;12.40;51.20;;;;;;6087572;29;20041;-78
2022/12/02 15:20:43;;;;;;;16.48;7.70;;;12.40;51.30;;;;;;6095301;29;20088;-78
2022/12/02 15:23:44;;;;;;;27.60;8.38;;;12.20;51.30;;;;;;6095847;29;20063;-80
2022/12/02 15:26:45;;;;;;;19.65;8.25;;;12.20;51.40;;;;;;6095427;29;20080;-78
2022/12/02 15:29:46;;;;;;;14.02;6.85;;;12.10;51.60;;;;;;6069079;29;20491;-79
2022/12/02 15:32:47;;;;;;;18.40;7.57;;;12.10;51.80;;;;;;6091495;29;20477;-77
2022/12/02 15:35:48;;;;;;;16.58;6.88;;;12.00;51.80;;;;;;6088985;29;20071;-78
2022/12/02 15:38:49;;;;;;;18.52;7.63;;;12.00;52.00;;;;;;6096794;29;20422;-78
2022/12/02 15:41:50;;;;;;;19.58;7.72;;;12.00;52.20;;;;;;6091481;29;20081;-77
2022/12/02 15:44:51;;;;;;;22.05;8.13;;;11.90;52.40;;;;;;6107357;29;20517;-78